Time;durP1;ratioP1;P1;durP2;ratioP2;P2;SDS_P1;SDS_P2;PMS_P1;PMS_P2;Temp;Humidity;BMP_temperature;BMP_pressure;BME280_temperature;BME280_humidity;BME280_pressure;Samples;Min_cycle;Max_cycle;Signal;HPM_P1;HPM_P2
2022/12/02 00:01:15;;;;;;;0.10;0.10;;;1.90;99.90;0.60;97539.00;;;;5053314;28;20218;-73
2022/12/02 00:03:45;;;;;;;0.10;0.10;;;1.90;99.90;0.60;97529.00;;;;5062140;28;20210;-71
2022/12/02 00:06:16;;;;;;;0.10;0.10;;;1.90;99.90;0.50;97533.00;;;;5053733;28;20186;-71
2022/12/02 00:08:44;;;;;;;0.10;0.10;;;1.90;99.90;0.60;97527.00;;;;5054858;28;20238;-71
2022/12/02 00:11:27;;;;;;;0.10;0.10;;;1.90;99.90;0.50;97535.00;;;;5054437;28;20896;-71
2022/12/02 00:14:00;;;;;;;0.10;0.10;;;1.90;99.90;0.40;97538.00;;;;5054274;28;20218;-71
2022/12/02 00:16:28;;;;;;;0.10;0.10;;;1.90;99.90;0.40;97517.00;;;;5060165;28;20186;-70
2022/12/02 00:18:56;;;;;;;0.10;0.10;;;1.90;99.90;0.50;97525.00;;;;5059392;28;20214;-70
2022/12/02 00:21:24;;;;;;;0.10;0.10;;;1.90;99.90;0.60;97533.00;;;;5055840;28;20222;-71
2022/12/02 00:23:53;;;;;;;0.10;0.10;;;1.90;99.90;0.60;97534.00;;;;5053373;28;20276;-70
2022/12/02 00:26:21;;;;;;;0.10;0.10;;;2.00;99.90;0.60;97532.00;;;;5052075;28;20194;-70
2022/12/02 00:28:49;;;;;;;0.10;0.10;;;1.90;99.90;0.50;97519.00;;;;5040378;28;20215;-71
2022/12/02 00:31:18;;;;;;;0.10;0.10;;;1.90;99.90;0.60;97519.00;;;;5038549;28;20732;-70
2022/12/02 00:33:48;;;;;;;0.10;0.10;;;1.90;99.90;0.60;97531.00;;;;5035941;28;20313;-71
2022/12/02 00:36:16;;;;;;;0.10;0.10;;;1.90;99.90;0.50;97521.00;;;;5056201;28;20245;-71
2022/12/02 00:38:44;;;;;;;0.10;0.10;;;1.90;99.90;0.50;97527.00;;;;5053586;28;20213;-71
2022/12/02 00:41:12;;;;;;;0.10;0.10;;;1.90;99.90;0.60;97532.00;;;;5053832;28;20276;-71
2022/12/02 00:46:33;;;;;;;0.10;0.10;;;1.90;99.90;0.50;97526.00;;;;5052746;28;20190;-71
2022/12/02 00:49:08;;;;;;;0.10;0.10;;;1.90;99.90;0.50;97522.00;;;;5053233;28;20194;-72
2022/12/02 00:51:38;;;;;;;0.10;0.10;;;1.90;99.90;0.60;97533.00;;;;5061035;28;20207;-70
2022/12/02 00:54:09;;;;;;;0.10;0.10;;;1.90;99.90;0.70;97526.00;;;;5051834;28;20206;-70
2022/12/02 00:56:38;;;;;;;0.10;0.10;;;2.00;99.90;0.60;97519.00;;;;5052265;28;20200;-70
2022/12/02 00:59:07;;;;;;;0.10;0.10;;;2.00;99.90;0.50;97523.00;;;;5050107;28;20207;-70
2022/12/02 01:01:36;;;;;;;0.10;0.10;;;2.00;99.90;0.50;97514.00;;;;5071319;28;20225;-70
2022/12/02 01:04:05;;;;;;;0.10;0.10;;;1.90;99.90;0.50;97511.00;;;;5070575;28;20218;-71
2022/12/02 01:06:33;;;;;;;0.15;0.15;;;1.90;99.90;0.40;97511.00;;;;5063326;28;20223;-71
2022/12/02 01:09:01;;;;;;;0.10;0.10;;;1.90;99.90;0.40;97512.00;;;;5078171;28;20259;-71
2022/12/02 01:11:30;;;;;;;0.10;0.10;;;1.80;99.90;0.40;97499.00;;;;5068524;28;20244;-71
2022/12/02 01:13:58;;;;;;;0.10;0.10;;;1.80;99.90;0.40;97500.00;;;;5064702;28;20240;-73
2022/12/02 01:16:26;;;;;;;0.20;0.20;;;1.80;99.90;0.40;97487.00;;;;5072158;28;20202;-71
2022/12/02 01:18:57;;;;;;;0.10;0.10;;;1.80;99.90;0.40;97504.00;;;;5056403;28;20714;-70
2022/12/02 01:21:25;;;;;;;0.10;0.10;;;1.80;99.90;0.40;97497.00;;;;5064860;28;20218;-71
2022/12/02 01:23:53;;;;;;;0.10;0.10;;;1.80;99.90;0.40;97499.00;;;;5072268;28;20217;-71
2022/12/02 01:26:21;;;;;;;0.10;0.10;;;1.80;99.90;0.40;97504.00;;;;5071820;28;20190;-70
2022/12/02 01:28:49;;;;;;;0.10;0.10;;;1.80;99.90;0.40;97503.00;;;;5069880;28;20214;-71
2022/12/02 01:31:18;;;;;;;0.10;0.10;;;1.80;99.90;0.30;97496.00;;;;5072344;28;20213;-71
2022/12/02 01:33:46;;;;;;;0.10;0.10;;;1.80;99.90;0.40;97495.00;;;;5078613;28;20256;-70
2022/12/02 01:36:15;;;;;;;0.10;0.10;;;1.80;99.90;0.30;97493.00;;;;5071100;28;20593;-70
2022/12/02 01:38:43;;;;;;;0.10;0.10;;;1.80;99.90;0.50;97510.00;;;;5070472;28;20185;-70
2022/12/02 01:41:12;;;;;;;0.10;0.10;;;1.80;99.90;0.40;97486.00;;;;5069718;28;20217;-70
2022/12/02 01:43:40;;;;;;;0.10;0.10;;;1.80;99.90;0.40;97487.00;;;;5072437;28;20219;-73
2022/12/02 01:46:08;;;;;;;0.15;0.15;;;1.80;99.90;0.40;97479.00;;;;5076807;28;20722;-71
2022/12/02 01:48:37;;;;;;;0.10;0.10;;;1.80;99.90;0.40;97485.00;;;;5058925;28;20201;-71
2022/12/02 01:51:07;;;;;;;0.10;0.10;;;1.80;99.90;0.30;97465.00;;;;5072060;28;20232;-70
2022/12/02 01:53:38;;;;;;;0.10;0.10;;;1.80;99.90;0.40;97477.00;;;;5071581;28;20206;-71
2022/12/02 01:56:09;;;;;;;0.20;0.20;;;1.80;99.90;0.30;97456.00;;;;5082384;28;20201;-73
2022/12/02 01:58:37;;;;;;;0.10;0.10;;;1.70;99.90;0.20;97464.00;;;;5072926;28;20194;-70
2022/12/02 02:01:30;;;;;;;0.10;0.10;;;1.70;99.90;0.20;97455.00;;;;5074213;28;20218;-70
2022/12/02 02:03:59;;;;;;;0.15;0.15;;;1.60;99.90;0.00;97456.00;;;;5063467;28;21143;-70
2022/12/02 02:06:32;;;;;;;0.10;0.10;;;1.50;99.90;0.00;97455.00;;;;5071731;28;20186;-70
2022/12/02 02:09:03;;;;;;;0.20;0.20;;;1.50;99.90;0.10;97457.00;;;;5058170;28;20194;-73
2022/12/02 02:11:31;;;;;;;0.10;0.10;;;1.60;99.90;0.10;97452.00;;;;5076310;28;20205;-70
2022/12/02 02:14:01;;;;;;;0.20;0.20;;;1.50;99.90;0.20;97401.00;;;;5071481;28;20205;-70
2022/12/02 02:16:29;;;;;;;0.10;0.10;;;1.60;99.90;0.10;97467.00;;;;5080459;28;20730;-73
2022/12/02 02:18:58;;;;;;;0.20;0.20;;;1.60;99.90;0.10;97454.00;;;;5060069;28;20190;-73
2022/12/02 02:21:32;;;;;;;0.10;0.10;;;1.60;99.90;0.10;97452.00;;;;5055286;28;20745;-70
2022/12/02 02:24:02;;;;;;;0.10;0.10;;;1.60;99.90;0.10;97455.00;;;;5069001;28;20208;-71
2022/12/02 02:26:32;;;;;;;0.20;0.20;;;1.50;99.90;0.10;97446.00;;;;5054917;28;20193;-70
2022/12/02 02:29:01;;;;;;;0.20;0.20;;;1.50;99.90;0.10;97452.00;;;;5067187;28;20233;-73
2022/12/02 02:31:30;;;;;;;0.10;0.10;;;1.50;99.90;0.10;97454.00;;;;5069691;28;20292;-73
2022/12/02 02:34:00;;;;;;;0.30;0.30;;;1.60;99.90;0.20;97442.00;;;;5077874;28;20232;-74
2022/12/02 02:36:28;;;;;;;0.20;0.20;;;1.60;99.90;0.20;97444.00;;;;5079608;28;20294;-72
2022/12/02 02:38:57;;;;;;;0.10;0.10;;;1.60;99.90;0.20;97442.00;;;;5050710;28;20197;-72
2022/12/02 02:41:28;;;;;;;0.20;0.20;;;1.60;99.90;0.30;97442.00;;;;5061415;28;20612;-74
2022/12/02 02:43:56;;;;;;;0.10;0.10;;;1.70;99.90;0.30;97435.00;;;;5072816;28;20719;-72
2022/12/02 02:46:25;;;;;;;0.10;0.10;;;1.70;99.90;0.30;97453.00;;;;5075560;28;20293;-72
2022/12/02 02:48:54;;;;;;;0.10;0.10;;;1.70;99.90;0.30;97445.00;;;;5068755;28;20181;-72
2022/12/02 02:51:22;;;;;;;0.10;0.10;;;1.70;99.90;0.30;97438.00;;;;5053222;28;20346;-72
2022/12/02 02:53:51;;;;;;;0.20;0.20;;;1.70;99.90;0.30;97446.00;;;;5052739;28;20217;-72
2022/12/02 02:56:19;;;;;;;0.20;0.20;;;1.70;99.90;0.30;97434.00;;;;5070977;28;20197;-71
2022/12/02 02:58:49;;;;;;;0.20;0.20;;;1.70;99.90;0.30;97431.00;;;;5064391;28;20190;-72
2022/12/02 03:01:24;;;;;;;0.10;0.10;;;1.70;99.90;0.30;97428.00;;;;5061875;28;20271;-74
2022/12/02 03:03:58;;;;;;;0.10;0.10;;;1.70;99.90;0.40;97434.00;;;;5050528;28;20251;-73
2022/12/02 03:06:30;;;;;;;0.10;0.10;;;1.70;99.90;0.40;97345.00;;;;5075755;28;20196;-72
2022/12/02 03:09:00;;;;;;;0.10;0.10;;;1.80;99.90;0.40;97431.00;;;;5058810;28;20196;-72
2022/12/02 03:11:30;;;;;;;0.10;0.10;;;1.70;99.90;0.30;97410.00;;;;5074894;28;20243;-71
2022/12/02 03:14:02;;;;;;;0.10;0.10;;;1.70;99.90;0.20;97409.00;;;;5074411;28;20615;-72
2022/12/02 03:16:30;;;;;;;0.10;0.10;;;1.70;99.90;0.30;97409.00;;;;5074758;28;20209;-71
2022/12/02 03:18:59;;;;;;;0.10;0.10;;;1.70;99.90;0.20;97427.00;;;;5065894;28;20725;-74
2022/12/02 03:21:28;;;;;;;0.20;0.20;;;1.60;99.90;0.20;97419.00;;;;5073928;28;20217;-72
2022/12/02 03:24:01;;;;;;;0.20;0.20;;;1.60;99.90;0.30;97415.00;;;;5073312;28;20206;-72
2022/12/02 03:26:30;;;;;;;0.10;0.10;;;1.70;99.90;0.30;97399.00;;;;5075187;28;20267;-72
2022/12/02 03:29:01;;;;;;;0.10;0.10;;;1.70;99.90;0.30;97348.00;;;;5066804;28;20190;-71
2022/12/02 03:31:31;;;;;;;0.10;0.10;;;1.70;99.90;0.30;97415.00;;;;5073262;28;20676;-73
2022/12/02 03:33:59;;;;;;;0.13;0.13;;;1.70;99.90;0.20;97400.00;;;;5067730;28;20240;-72
2022/12/02 03:36:28;;;;;;;0.20;0.20;;;1.70;99.90;0.20;97395.00;;;;5074278;28;20653;-71
2022/12/02 03:38:57;;;;;;;0.10;0.10;;;1.60;99.90;0.20;97398.00;;;;5072503;28;20189;-70
2022/12/02 03:41:26;;;;;;;0.10;0.10;;;1.60;99.90;0.20;97402.00;;;;5074136;28;20217;-70
2022/12/02 03:43:55;;;;;;;0.10;0.10;;;1.60;99.90;0.30;97389.00;;;;5072358;28;20217;-70
2022/12/02 03:46:26;;;;;;;0.10;0.10;;;1.60;99.90;0.30;97384.00;;;;5072963;28;20205;-70
2022/12/02 03:48:57;;;;;;;0.10;0.10;;;1.70;99.90;0.40;97401.00;;;;5071986;28;20196;-70
2022/12/02 03:51:26;;;;;;;0.20;0.20;;;1.70;99.90;0.40;97391.00;;;;5073822;28;20209;-70
2022/12/02 03:53:55;;;;;;;0.10;0.10;;;1.70;99.90;0.40;97397.00;;;;5073539;28;20259;-71
2022/12/02 03:56:24;;;;;;;0.10;0.10;;;1.70;99.90;0.20;97402.00;;;;5073752;28;20201;-70
2022/12/02 03:58:53;;;;;;;0.10;0.10;;;1.70;99.90;0.30;97398.00;;;;5072024;28;20186;-70
2022/12/02 04:01:22;;;;;;;0.10;0.10;;;1.80;99.90;0.30;97393.00;;;;5073138;28;20207;-71
2022/12/02 04:03:52;;;;;;;0.17;0.17;;;1.70;99.90;0.40;97395.00;;;;5073500;28;20332;-71
2022/12/02 04:06:20;;;;;;;0.10;0.10;;;1.70;99.90;0.30;97382.00;;;;5073554;28;20193;-71
2022/12/02 04:08:48;;;;;;;0.10;0.10;;;1.70;99.90;0.30;97384.00;;;;5072183;28;20247;-71
2022/12/02 04:11:16;;;;;;;0.10;0.10;;;1.70;99.90;0.30;97377.00;;;;5073715;28;20201;-71
2022/12/02 04:13:44;;;;;;;0.20;0.20;;;1.70;99.90;0.30;97386.00;;;;5064169;28;20216;-71
2022/12/02 04:16:13;;;;;;;0.10;0.10;;;1.70;99.90;0.20;97378.00;;;;5073429;28;20190;-71
2022/12/02 04:18:41;;;;;;;0.10;0.10;;;1.70;99.90;0.20;97374.00;;;;5069923;28;20280;-71
2022/12/02 04:21:10;;;;;;;0.10;0.10;;;1.70;99.90;0.30;97377.00;;;;5063233;28;20689;-70
2022/12/02 04:23:38;;;;;;;0.10;0.10;;;1.70;99.90;0.30;97368.00;;;;5068948;28;20724;-70
2022/12/02 04:26:07;;;;;;;0.10;0.10;;;1.70;99.90;0.30;97367.00;;;;5067566;28;20193;-72
2022/12/02 04:28:35;;;;;;;0.10;0.10;;;1.70;99.90;0.30;97366.00;;;;5071651;28;20210;-71
2022/12/02 04:31:03;;;;;;;0.10;0.10;;;1.70;99.90;0.30;97357.00;;;;5073015;28;20201;-70
2022/12/02 04:33:31;;;;;;;0.13;0.13;;;1.70;99.90;0.30;97371.00;;;;5073067;28;20297;-70
2022/12/02 04:35:59;;;;;;;0.10;0.10;;;1.70;99.90;0.30;97366.00;;;;5072674;28;20197;-70
2022/12/02 04:38:29;;;;;;;0.10;0.10;;;1.70;99.90;0.30;97361.00;;;;5071755;28;20194;-71
2022/12/02 04:40:57;;;;;;;0.10;0.10;;;1.70;99.90;0.40;97382.00;;;;5072873;28;20198;-71
2022/12/02 04:43:25;;;;;;;0.10;0.10;;;1.80;99.90;0.40;97378.00;;;;5072884;28;20214;-70
2022/12/02 04:45:53;;;;;;;0.10;0.10;;;1.80;99.90;0.40;97370.00;;;;5073001;28;20197;-73
2022/12/02 04:48:21;;;;;;;0.20;0.20;;;1.80;99.90;0.30;97372.00;;;;5072464;28;20676;-70
2022/12/02 04:50:49;;;;;;;0.20;0.20;;;1.80;99.90;0.30;97364.00;;;;5072285;28;20334;-70
2022/12/02 04:53:17;;;;;;;0.17;0.17;;;1.70;99.90;0.20;97367.00;;;;5072429;28;20709;-71
2022/12/02 04:55:47;;;;;;;0.20;0.20;;;1.70;99.90;0.20;97374.00;;;;5072526;28;20758;-71
2022/12/02 04:58:15;;;;;;;0.10;0.10;;;1.70;99.90;0.30;97367.00;;;;5072179;28;20672;-69
2022/12/02 05:00:43;;;;;;;0.10;0.10;;;1.70;99.90;0.40;97378.00;;;;5072214;28;20206;-70
2022/12/02 05:03:11;;;;;;;0.10;0.10;;;1.70;99.90;0.30;97351.00;;;;5072220;28;20213;-70
2022/12/02 05:05:39;;;;;;;0.10;0.10;;;1.70;99.90;0.40;97369.00;;;;5071762;28;20198;-70
2022/12/02 05:08:07;;;;;;;0.13;0.13;;;1.80;99.90;0.30;97354.00;;;;5072069;28;20201;-70
2022/12/02 05:10:36;;;;;;;0.10;0.10;;;1.70;99.90;0.30;97352.00;;;;5072089;28;20220;-72
2022/12/02 05:13:05;;;;;;;0.20;0.20;;;1.80;99.90;0.30;97396.00;;;;5072475;28;20255;-70
2022/12/02 05:15:33;;;;;;;0.10;0.10;;;1.70;99.90;0.40;97370.00;;;;5071426;28;20281;-70
2022/12/02 05:18:01;;;;;;;0.10;0.10;;;1.70;99.90;0.40;97363.00;;;;5070349;28;20243;-70
2022/12/02 05:20:29;;;;;;;0.10;0.10;;;1.80;99.90;0.40;97358.00;;;;5072226;28;20198;-70
2022/12/02 05:22:58;;;;;;;0.10;0.10;;;1.80;99.90;0.30;97366.00;;;;5064210;28;20206;-70
2022/12/02 05:25:26;;;;;;;0.20;0.20;;;1.70;99.90;0.40;97354.00;;;;5072146;28;20213;-70
2022/12/02 05:27:54;;;;;;;0.10;0.10;;;1.70;99.90;0.40;97360.00;;;;5071283;28;20198;-70
2022/12/02 05:30:24;;;;;;;0.10;0.10;;;1.70;99.90;0.30;97353.00;;;;5074813;28;20666;-72
2022/12/02 05:32:52;;;;;;;0.13;0.13;;;1.70;99.90;0.30;97357.00;;;;5067113;28;20220;-71
2022/12/02 05:35:20;;;;;;;0.10;0.10;;;1.70;99.90;0.30;97354.00;;;;5071719;28;20684;-71
2022/12/02 05:37:48;;;;;;;0.10;0.10;;;1.70;99.90;0.30;97363.00;;;;5071321;28;20208;-72
2022/12/02 05:40:16;;;;;;;0.20;0.20;;;1.70;99.90;0.30;97348.00;;;;5071821;28;20272;-71
2022/12/02 05:42:45;;;;;;;0.10;0.10;;;1.70;99.90;0.20;97354.00;;;;5071810;28;20202;-71
2022/12/02 05:45:21;;;;;;;0.10;0.10;;;1.70;99.90;0.30;97354.00;;;;5072942;28;20627;-70
2022/12/02 05:47:54;;;;;;;0.10;0.10;;;1.70;99.90;0.30;97329.00;;;;5071140;28;20247;-72
2022/12/02 05:50:23;;;;;;;0.10;0.10;;;1.70;99.90;0.50;97364.00;;;;5072236;28;20202;-70
2022/12/02 05:52:55;;;;;;;0.20;0.20;;;1.80;99.90;0.50;97368.00;;;;5067995;28;20200;-71
2022/12/02 05:55:24;;;;;;;0.10;0.10;;;1.90;99.90;0.40;97359.00;;;;5069812;28;20228;-71
2022/12/02 05:58:00;;;;;;;0.10;0.10;;;1.80;99.90;0.40;97390.00;;;;5066401;28;20201;-71
2022/12/02 06:00:28;;;;;;;0.10;0.10;;;1.80;99.90;0.40;97375.00;;;;5072076;28;20197;-71
2022/12/02 06:03:02;;;;;;;0.10;0.10;;;1.80;99.90;0.50;97369.00;;;;5070940;28;20742;-70
2022/12/02 06:05:37;;;;;;;0.10;0.10;;;1.80;99.90;0.50;97365.00;;;;5071540;28;20289;-71
2022/12/02 06:08:17;;;;;;;0.10;0.10;;;1.90;99.90;0.50;97357.00;;;;5071088;28;20197;-71
2022/12/02 06:10:49;;;;;;;0.10;0.10;;;1.90;99.90;0.50;97357.00;;;;5071414;28;20190;-71
2022/12/02 06:13:21;;;;;;;0.10;0.10;;;1.90;99.90;0.50;97334.00;;;;5070939;28;20213;-71
2022/12/02 06:15:51;;;;;;;0.10;0.10;;;1.90;99.90;0.50;97321.00;;;;5071149;28;20228;-70
2022/12/02 06:18:27;;;;;;;0.10;0.10;;;1.90;99.90;0.40;97356.00;;;;5063885;28;20197;-71
2022/12/02 06:20:59;;;;;;;0.10;0.10;;;1.80;99.90;0.50;97342.00;;;;5070177;28;20196;-71
2022/12/02 06:23:30;;;;;;;0.10;0.10;;;1.80;99.90;0.40;97278.00;;;;5069040;28;20244;-70
2022/12/02 06:26:00;;;;;;;0.10;0.10;;;1.80;99.90;0.20;97354.00;;;;5069767;28;20326;-71
2022/12/02 06:28:34;;;;;;;0.10;0.10;;;1.80;99.90;0.40;97336.00;;;;5062483;28;20529;-70
2022/12/02 06:31:14;;;;;;;0.10;0.10;;;1.80;99.90;0.00;97347.00;;;;5070453;28;20209;-71
2022/12/02 06:33:47;;;;;;;0.10;0.10;;;1.80;99.90;0.30;97331.00;;;;5070188;28;20213;-71
2022/12/02 06:36:20;;;;;;;0.10;0.10;;;1.80;99.90;0.30;97337.00;;;;5072141;28;20262;-71
2022/12/02 06:38:51;;;;;;;0.10;0.10;;;1.70;99.90;0.30;97334.00;;;;5072045;28;20239;-74
2022/12/02 06:41:23;;;;;;;0.10;0.10;;;1.70;99.90;0.40;97343.00;;;;5070511;28;20197;-73
2022/12/02 06:46:42;;;;;;;0.10;0.10;;;1.70;99.90;0.20;97334.00;;;;5068358;28;20197;-71
2022/12/02 06:49:20;;;;;;;0.20;0.20;;;1.70;99.90;0.30;97352.00;;;;5069147;28;20194;-71
2022/12/02 06:51:55;;;;;;;0.10;0.10;;;1.70;99.90;0.40;97348.00;;;;5065623;28;20193;-71
2022/12/02 06:54:29;;;;;;;0.10;0.10;;;1.70;99.90;0.30;97348.00;;;;5070968;28;20221;-71
2022/12/02 06:57:01;;;;;;;0.10;0.10;;;1.70;99.90;0.20;97341.00;;;;5071253;28;20671;-73
2022/12/02 06:59:31;;;;;;;0.10;0.10;;;1.70;99.90;0.30;97349.00;;;;5070570;28;20212;-73
2022/12/02 07:02:03;;;;;;;0.10;0.10;;;1.70;99.90;0.30;97345.00;;;;5070976;28;20186;-71
2022/12/02 07:04:44;;;;;;;0.10;0.10;;;1.70;99.90;0.30;97339.00;;;;5056581;28;20304;-71
2022/12/02 07:07:21;;;;;;;0.10;0.10;;;1.70;99.90;0.30;97349.00;;;;5070950;28;20250;-71
2022/12/02 07:09:54;;;;;;;0.10;0.10;;;1.70;99.90;0.40;97357.00;;;;5071028;28;20276;-71
2022/12/02 07:12:25;;;;;;;0.10;0.10;;;1.80;99.90;0.50;97348.00;;;;5070594;28;20206;-71
2022/12/02 07:14:59;;;;;;;0.10;0.10;;;1.80;99.90;0.40;97351.00;;;;5070804;28;20217;-71
2022/12/02 07:17:31;;;;;;;0.10;0.10;;;1.80;99.90;0.50;97344.00;;;;5070316;28;20461;-71
2022/12/02 07:20:15;;;;;;;0.10;0.10;;;1.80;99.90;0.50;97342.00;;;;5070494;28;20739;-71
2022/12/02 07:22:48;;;;;;;0.10;0.10;;;1.90;99.90;0.50;97339.00;;;;5070016;28;20193;-71
2022/12/02 07:25:37;;;;;;;0.10;0.10;;;1.90;99.90;0.50;97254.00;;;;5070469;28;20210;-71
2022/12/02 07:28:25;;;;;;;0.10;0.10;;;1.90;99.90;0.50;97338.00;;;;5067216;28;20288;-71
2022/12/02 07:31:01;;;;;;;0.10;0.10;;;1.90;99.90;0.50;97343.00;;;;5070746;28;20186;-71
2022/12/02 07:33:30;;;;;;;0.10;0.10;;;1.80;99.90;0.50;97347.00;;;;5070554;28;20215;-71
2022/12/02 07:35:59;;;;;;;0.10;0.10;;;1.80;99.90;0.50;97348.00;;;;5070711;28;20198;-70
2022/12/02 07:38:28;;;;;;;0.10;0.10;;;1.80;99.90;0.50;97366.00;;;;5068808;28;20210;-71
2022/12/02 07:41:18;;;;;;;0.10;0.10;;;1.90;99.90;0.60;97362.00;;;;5050950;28;20194;-70
2022/12/02 07:43:46;;;;;;;0.10;0.10;;;1.90;99.90;0.60;97352.00;;;;5068822;28;20225;-71
2022/12/02 07:46:14;;;;;;;0.10;0.10;;;1.90;99.90;0.50;97348.00;;;;5070525;28;20220;-73
2022/12/02 07:48:42;;;;;;;0.10;0.10;;;1.90;99.90;0.60;97369.00;;;;5069620;28;20192;-71
2022/12/02 07:51:12;;;;;;;0.20;0.20;;;1.90;99.90;0.60;97354.00;;;;5070668;28;20202;-70
2022/12/02 07:53:40;;;;;;;0.10;0.10;;;2.00;99.90;0.60;97351.00;;;;5073142;28;20225;-71
2022/12/02 07:56:08;;;;;;;0.10;0.10;;;2.00;99.90;0.60;97352.00;;;;5074430;28;20243;-71
2022/12/02 07:58:36;;;;;;;0.10;0.10;;;2.00;99.90;0.60;97380.00;;;;5073229;28;20243;-71
2022/12/02 08:01:24;;;;;;;0.10;0.10;;;2.00;99.90;0.60;97331.00;;;;5074354;28;20190;-71
2022/12/02 08:03:53;;;;;;;0.10;0.10;;;2.00;99.90;0.70;97341.00;;;;5073869;28;20309;-71
2022/12/02 08:06:22;;;;;;;0.10;0.10;;;2.00;99.90;0.60;97342.00;;;;5054613;28;20198;-71
2022/12/02 08:08:50;;;;;;;0.10;0.10;;;2.00;99.90;0.60;97340.00;;;;5060487;28;20186;-71
2022/12/02 08:11:18;;;;;;;0.10;0.10;;;2.00;99.90;0.60;97345.00;;;;5074021;28;20197;-71
2022/12/02 08:13:46;;;;;;;0.10;0.10;;;2.00;99.90;0.70;97336.00;;;;5073990;28;20723;-71
2022/12/02 08:16:14;;;;;;;0.10;0.10;;;2.10;99.90;0.70;97343.00;;;;5074038;28;20193;-72
2022/12/02 08:18:43;;;;;;;0.10;0.10;;;2.10;99.90;0.70;97342.00;;;;5073374;28;20186;-72
2022/12/02 08:21:11;;;;;;;0.10;0.10;;;2.10;99.90;0.70;97334.00;;;;5071227;28;20243;-72
2022/12/02 08:23:40;;;;;;;0.10;0.10;;;2.10;99.90;0.70;97338.00;;;;5074082;28;20216;-71
2022/12/02 08:26:08;;;;;;;0.10;0.10;;;2.10;99.90;0.70;97326.00;;;;5073914;28;20264;-72
2022/12/02 08:28:36;;;;;;;0.10;0.10;;;2.10;99.90;0.70;97337.00;;;;5073148;28;20204;-72
2022/12/02 08:31:05;;;;;;;0.10;0.10;;;2.10;99.90;0.70;97331.00;;;;5060504;28;20247;-72
2022/12/02 08:33:33;;;;;;;0.10;0.10;;;2.10;99.90;0.70;97339.00;;;;5075395;28;20228;-71
2022/12/02 08:36:01;;;;;;;0.10;0.10;;;2.10;99.90;0.80;97328.00;;;;5076202;28;20197;-71
2022/12/02 08:38:29;;;;;;;0.10;0.10;;;2.10;99.90;0.80;97333.00;;;;5072716;28;20224;-72
2022/12/02 08:40:59;;;;;;;0.10;0.10;;;2.10;99.90;0.80;97337.00;;;;5073311;28;20269;-71
2022/12/02 08:43:27;;;;;;;0.10;0.10;;;2.20;99.90;0.80;97326.00;;;;5073493;28;20217;-72
2022/12/02 08:45:55;;;;;;;0.10;0.10;;;2.20;99.90;0.90;97333.00;;;;5073287;28;20214;-71
2022/12/02 08:48:23;;;;;;;0.13;0.13;;;2.20;99.90;0.80;97309.00;;;;5072025;28;20255;-71
2022/12/02 08:50:53;;;;;;;0.10;0.10;;;2.20;99.90;0.90;97332.00;;;;5074483;28;20186;-71
2022/12/02 08:53:22;;;;;;;0.10;0.10;;;2.20;99.90;0.90;97307.00;;;;5074802;28;20190;-72
2022/12/02 08:55:51;;;;;;;0.10;0.10;;;2.20;99.90;0.80;97268.00;;;;5079521;28;20197;-72
2022/12/02 08:58:21;;;;;;;0.10;0.10;;;2.20;99.90;0.90;97320.00;;;;5072027;28;20284;-72
2022/12/02 09:00:49;;;;;;;0.13;0.13;;;2.20;99.90;0.90;97327.00;;;;5072912;28;20617;-73
2022/12/02 09:03:17;;;;;;;0.10;0.10;;;2.20;99.90;0.90;97320.00;;;;5071931;28;20202;-72
2022/12/02 09:05:45;;;;;;;0.10;0.10;;;2.20;99.90;1.00;97327.00;;;;5071924;28;20209;-71
2022/12/02 09:08:14;;;;;;;0.10;0.10;;;2.30;99.90;0.90;97321.00;;;;5071933;28;20186;-71
2022/12/02 09:10:42;;;;;;;0.20;0.20;;;2.30;99.90;0.90;97313.00;;;;5072062;28;20244;-72
2022/12/02 09:13:11;;;;;;;0.10;0.10;;;2.20;99.90;0.90;97329.00;;;;5072267;28;20198;-71
2022/12/02 09:15:40;;;;;;;0.10;0.10;;;2.30;99.90;0.90;97327.00;;;;5072632;28;20370;-71
2022/12/02 09:18:08;;;;;;;0.08;0.08;;;2.30;99.90;0.90;97317.00;;;;5072267;28;20198;-71
2022/12/02 09:20:42;;;;;;;0.10;0.10;;;2.30;99.90;1.00;97331.00;;;;5070104;28;20199;-71
2022/12/02 09:23:10;;;;;;;0.10;0.10;;;2.30;99.90;1.00;97318.00;;;;5071777;28;20910;-71
2022/12/02 09:25:38;;;;;;;0.10;0.10;;;2.30;99.90;1.00;97335.00;;;;5071998;28;20259;-71
2022/12/02 09:28:06;;;;;;;0.10;0.10;;;2.30;99.90;1.00;97324.00;;;;5068342;28;20562;-71
2022/12/02 09:30:35;;;;;;;0.22;0.22;;;2.30;99.90;0.90;97330.00;;;;5061050;28;20201;-71
2022/12/02 09:33:04;;;;;;;0.10;0.10;;;2.30;99.90;0.90;97328.00;;;;5071614;28;20664;-71
2022/12/02 09:35:32;;;;;;;0.10;0.10;;;2.30;99.90;1.00;97322.00;;;;5073514;28;20202;-73
2022/12/02 09:38:02;;;;;;;0.10;0.10;;;2.30;99.90;1.10;97327.00;;;;5066600;28;20206;-70
2022/12/02 09:40:32;;;;;;;0.10;0.10;;;2.40;99.90;1.10;97279.00;;;;5074358;28;20266;-72
2022/12/02 09:43:01;;;;;;;0.10;0.10;;;2.40;99.90;1.00;97315.00;;;;5071479;28;20193;-71
2022/12/02 09:45:30;;;;;;;0.10;0.10;;;2.40;99.90;1.00;97342.00;;;;5076295;28;20230;-71
2022/12/02 09:47:59;;;;;;;0.17;0.17;;;2.40;99.90;1.00;97321.00;;;;5073466;28;20198;-70
2022/12/02 09:50:28;;;;;;;0.10;0.10;;;2.40;99.90;1.00;97189.00;;;;5072416;28;20246;-72
2022/12/02 09:53:06;;;;;;;0.10;0.10;;;2.40;99.90;1.10;97330.00;;;;5072270;28;20201;-70
2022/12/02 09:55:36;;;;;;;0.10;0.10;;;2.40;99.90;1.10;97328.00;;;;5071932;28;20201;-70
2022/12/02 09:58:15;;;;;;;0.10;0.10;;;2.40;99.90;1.00;97312.00;;;;5070508;28;20198;-72
2022/12/02 10:00:44;;;;;;;0.10;0.10;;;2.40;99.90;1.10;97311.00;;;;5072112;28;20664;-73
2022/12/02 10:03:18;;;;;;;0.10;0.10;;;2.40;99.90;1.10;97322.00;;;;5071377;28;20201;-72
2022/12/02 10:05:48;;;;;;;0.10;0.10;;;2.50;99.90;1.20;97308.00;;;;5071306;28;20221;-71
2022/12/02 10:08:21;;;;;;;0.10;0.10;;;2.50;99.90;1.20;97317.00;;;;5071441;28;20193;-72
2022/12/02 10:10:50;;;;;;;0.10;0.10;;;2.50;99.90;1.10;97312.00;;;;5071939;28;20367;-70
2022/12/02 10:13:23;;;;;;;0.10;0.10;;;2.50;99.90;1.10;97309.00;;;;5071513;28;20194;-73
2022/12/02 10:15:51;;;;;;;0.10;0.10;;;2.50;99.90;1.10;97318.00;;;;5070317;28;20193;-73
2022/12/02 10:18:24;;;;;;;0.10;0.10;;;2.50;99.90;1.20;97283.00;;;;5070922;28;20209;-71
2022/12/02 10:20:53;;;;;;;0.10;0.10;;;2.50;99.90;1.10;97233.00;;;;5071218;28;20189;-72
2022/12/02 10:23:23;;;;;;;0.10;0.10;;;2.50;99.90;1.20;97284.00;;;;5070774;28;20219;-70
2022/12/02 10:25:57;;;;;;;0.20;0.20;;;2.50;99.90;1.30;97239.00;;;;5070656;28;20267;-73
2022/12/02 10:28:29;;;;;;;0.10;0.10;;;2.60;99.90;1.40;97297.00;;;;5069961;28;20194;-71
2022/12/02 10:31:03;;;;;;;0.10;0.10;;;2.70;99.90;1.30;97288.00;;;;5071270;28;20692;-70
2022/12/02 10:33:34;;;;;;;0.10;0.10;;;2.60;99.90;1.20;97289.00;;;;5071004;28;20243;-72
2022/12/02 10:36:04;;;;;;;0.10;0.10;;;2.60;99.90;1.30;97298.00;;;;5062552;28;20673;-71
2022/12/02 10:38:39;;;;;;;0.10;0.10;;;2.60;99.90;1.30;97289.00;;;;5061879;28;20208;-72
2022/12/02 10:41:21;;;;;;;0.10;0.10;;;2.60;99.90;1.30;97274.00;;;;5052864;28;20247;-73
2022/12/02 10:44:14;;;;;;;0.10;0.10;;;2.60;99.90;1.30;97284.00;;;;5070076;28;20762;-72
2022/12/02 10:46:43;;;;;;;0.10;0.10;;;2.60;99.90;1.20;97274.00;;;;5070421;28;20267;-71
2022/12/02 10:49:31;;;;;;;0.10;0.10;;;2.60;99.90;1.30;97272.00;;;;5070550;28;20677;-71
2022/12/02 10:52:07;;;;;;;0.10;0.10;;;2.70;99.90;1.20;97267.00;;;;5050346;28;20213;-73
2022/12/02 10:54:39;;;;;;;0.10;0.10;;;2.60;99.90;1.20;97274.00;;;;5068377;28;20244;-71
2022/12/02 10:57:25;;;;;;;0.10;0.10;;;2.60;99.90;1.20;97268.00;;;;5070985;28;20284;-70
2022/12/02 10:59:56;;;;;;;0.10;0.10;;;2.60;99.90;1.20;97274.00;;;;5070695;28;20262;-70
2022/12/02 11:02:34;;;;;;;0.10;0.10;;;2.60;99.90;1.30;97278.00;;;;5071374;28;20193;-70
2022/12/02 11:05:16;;;;;;;0.10;0.10;;;2.60;99.90;1.40;97275.00;;;;5065329;28;20229;-71
2022/12/02 11:07:55;;;;;;;0.10;0.10;;;2.70;99.90;1.40;97279.00;;;;5070529;28;20193;-70
2022/12/02 11:10:27;;;;;;;0.10;0.10;;;2.70;99.90;1.40;97294.00;;;;5070050;28;20196;-70
2022/12/02 11:13:46;;;;;;;0.10;0.10;;;2.70;99.90;1.40;97278.00;;;;5070610;28;20193;-71
2022/12/02 11:17:06;;;;;;;0.10;0.10;;;2.70;99.90;1.40;97280.00;;;;5070907;28;20198;-70
2022/12/02 11:19:46;;;;;;;0.10;0.10;;;2.70;99.90;1.40;97288.00;;;;5070208;28;20272;-72
2022/12/02 11:23:14;;;;;;;0.10;0.10;;;2.70;99.90;1.30;97275.00;;;;5069926;28;20185;-72
2022/12/02 11:26:01;;;;;;;0.10;0.10;;;2.70;99.90;1.30;97266.00;;;;5060676;28;20275;-72
2022/12/02 11:29:09;;;;;;;0.10;0.10;;;2.60;99.90;1.30;97267.00;;;;5074404;28;20212;-72
2022/12/02 11:31:37;;;;;;;0.10;0.10;;;2.60;99.90;1.30;97274.00;;;;5073896;28;20193;-72
2022/12/02 11:34:26;;;;;;;0.10;0.10;;;2.60;99.90;1.30;97239.00;;;;5074610;28;20244;-72